sensor_id;sensor_type;location;lat;lon;timestamp;temperature;humidity
68476;DHT22;55464;48.266;14.188;2023-03-11T00:02:10;5.80;71.50
68476;DHT22;55464;48.266;14.188;2023-03-11T00:04:35;5.80;72.90
68476;DHT22;55464;48.266;14.188;2023-03-11T00:07:05;5.80;69.30
68476;DHT22;55464;48.266;14.188;2023-03-11T00:09:31;5.80;69.70
68476;DHT22;55464;48.266;14.188;2023-03-11T00:11:56;5.80;69.70
68476;DHT22;55464;48.266;14.188;2023-03-11T00:14:22;5.80;68.10
68476;DHT22;55464;48.266;14.188;2023-03-11T00:16:48;5.80;68.50
68476;DHT22;55464;48.266;14.188;2023-03-11T00:19:13;5.80;66.00
68476;DHT22;55464;48.266;14.188;2023-03-11T00:21:39;5.70;65.90
68476;DHT22;55464;48.266;14.188;2023-03-11T00:24:05;5.70;65.30
68476;DHT22;55464;48.266;14.188;2023-03-11T00:26:30;5.60;65.50
68476;DHT22;55464;48.266;14.188;2023-03-11T00:28:56;5.60;64.80
68476;DHT22;55464;48.266;14.188;2023-03-11T00:31:22;5.50;66.60
68476;DHT22;55464;48.266;14.188;2023-03-11T00:33:51;5.40;67.70
68476;DHT22;55464;48.266;14.188;2023-03-11T00:36:29;5.30;67.50
68476;DHT22;55464;48.266;14.188;2023-03-11T00:38:59;5.30;69.10
68476;DHT22;55464;48.266;14.188;2023-03-11T00:41:27;5.30;66.50
68476;DHT22;55464;48.266;14.188;2023-03-11T00:43:53;5.10;63.60
68476;DHT22;55464;48.266;14.188;2023-03-11T00:46:19;5.00;64.00
68476;DHT22;55464;48.266;14.188;2023-03-11T00:48:44;4.80;64.10
68476;DHT22;55464;48.266;14.188;2023-03-11T00:51:14;4.80;64.10
68476;DHT22;55464;48.266;14.188;2023-03-11T00:53:41;4.70;64.90
68476;DHT22;55464;48.266;14.188;2023-03-11T00:56:12;4.60;65.60
68476;DHT22;55464;48.266;14.188;2023-03-11T00:58:39;4.60;65.70
68476;DHT22;55464;48.266;14.188;2023-03-11T01:01:23;4.50;65.90
68476;DHT22;55464;48.266;14.188;2023-03-11T01:03:48;4.50;65.30
68476;DHT22;55464;48.266;14.188;2023-03-11T01:06:14;4.30;65.50
68476;DHT22;55464;48.266;14.188;2023-03-11T01:08:40;4.40;66.50
68476;DHT22;55464;48.266;14.188;2023-03-11T01:11:07;4.30;65.60
68476;DHT22;55464;48.266;14.188;2023-03-11T01:13:33;4.30;66.70
68476;DHT22;55464;48.266;14.188;2023-03-11T01:15:59;4.30;66.00
68476;DHT22;55464;48.266;14.188;2023-03-11T01:18:25;4.20;65.50
68476;DHT22;55464;48.266;14.188;2023-03-11T01:20:51;4.20;64.40
68476;DHT22;55464;48.266;14.188;2023-03-11T01:23:18;4.10;65.20
68476;DHT22;55464;48.266;14.188;2023-03-11T01:25:44;4.10;65.50
68476;DHT22;55464;48.266;14.188;2023-03-11T01:28:11;4.10;64.40
68476;DHT22;55464;48.266;14.188;2023-03-11T01:30:38;4.10;64.00
68476;DHT22;55464;48.266;14.188;2023-03-11T01:33:05;4.10;65.20
68476;DHT22;55464;48.266;14.188;2023-03-11T01:35:31;4.10;63.40
68476;DHT22;55464;48.266;14.188;2023-03-11T01:37:58;4.10;62.90
68476;DHT22;55464;48.266;14.188;2023-03-11T01:40:29;4.10;62.30
68476;DHT22;55464;48.266;14.188;2023-03-11T01:42:55;4.00;62.50
68476;DHT22;55464;48.266;14.188;2023-03-11T01:48:14;3.90;62.30
68476;DHT22;55464;48.266;14.188;2023-03-11T01:50:43;4.00;63.10
68476;DHT22;55464;48.266;14.188;2023-03-11T01:53:10;3.90;63.60
68476;DHT22;55464;48.266;14.188;2023-03-11T01:55:37;3.80;61.00
68476;DHT22;55464;48.266;14.188;2023-03-11T01:58:06;3.80;59.40
68476;DHT22;55464;48.266;14.188;2023-03-11T02:00:33;3.90;60.40
68476;DHT22;55464;48.266;14.188;2023-03-11T02:03:01;3.80;61.30
68476;DHT22;55464;48.266;14.188;2023-03-11T02:05:30;3.70;59.00
68476;DHT22;55464;48.266;14.188;2023-03-11T02:07:58;3.70;58.80
68476;DHT22;55464;48.266;14.188;2023-03-11T02:10:24;3.70;58.90
68476;DHT22;55464;48.266;14.188;2023-03-11T02:12:51;3.60;59.40
68476;DHT22;55464;48.266;14.188;2023-03-11T02:15:17;3.60;59.10
68476;DHT22;55464;48.266;14.188;2023-03-11T02:17:43;3.60;58.80
68476;DHT22;55464;48.266;14.188;2023-03-11T02:20:28;3.60;59.70
68476;DHT22;55464;48.266;14.188;2023-03-11T02:22:57;3.60;59.50
68476;DHT22;55464;48.266;14.188;2023-03-11T02:25:40;3.50;59.40
68476;DHT22;55464;48.266;14.188;2023-03-11T02:28:12;3.50;57.80
68476;DHT22;55464;48.266;14.188;2023-03-11T02:30:41;3.50;57.20
68476;DHT22;55464;48.266;14.188;2023-03-11T02:33:09;3.50;57.50
68476;DHT22;55464;48.266;14.188;2023-03-11T02:35:35;3.50;56.70
68476;DHT22;55464;48.266;14.188;2023-03-11T02:38:00;3.50;55.90
68476;DHT22;55464;48.266;14.188;2023-03-11T02:42:56;3.40;54.50
68476;DHT22;55464;48.266;14.188;2023-03-11T02:45:25;3.30;52.00
68476;DHT22;55464;48.266;14.188;2023-03-11T02:47:52;3.30;52.40
68476;DHT22;55464;48.266;14.188;2023-03-11T02:50:19;3.30;52.80
68476;DHT22;55464;48.266;14.188;2023-03-11T02:52:47;3.30;53.70
68476;DHT22;55464;48.266;14.188;2023-03-11T02:55:13;3.20;53.50
68476;DHT22;55464;48.266;14.188;2023-03-11T02:57:41;3.20;53.10
68476;DHT22;55464;48.266;14.188;2023-03-11T03:00:08;3.10;53.20
68476;DHT22;55464;48.266;14.188;2023-03-11T03:02:39;3.10;53.60
68476;DHT22;55464;48.266;14.188;2023-03-11T03:05:06;3.10;53.70
68476;DHT22;55464;48.266;14.188;2023-03-11T03:07:32;3.10;54.50
68476;DHT22;55464;48.266;14.188;2023-03-11T03:09:58;3.10;53.50
68476;DHT22;55464;48.266;14.188;2023-03-11T03:12:24;3.10;53.30
68476;DHT22;55464;48.266;14.188;2023-03-11T03:14:49;3.10;53.00
68476;DHT22;55464;48.266;14.188;2023-03-11T03:17:15;3.00;52.80
68476;DHT22;55464;48.266;14.188;2023-03-11T03:19:41;3.00;53.30
68476;DHT22;55464;48.266;14.188;2023-03-11T03:22:07;3.00;52.80
68476;DHT22;55464;48.266;14.188;2023-03-11T03:24:32;3.00;52.80
68476;DHT22;55464;48.266;14.188;2023-03-11T03:26:58;3.10;52.30
68476;DHT22;55464;48.266;14.188;2023-03-11T03:29:23;3.00;53.00
68476;DHT22;55464;48.266;14.188;2023-03-11T03:31:49;3.00;53.20
68476;DHT22;55464;48.266;14.188;2023-03-11T03:34:15;3.00;52.60
68476;DHT22;55464;48.266;14.188;2023-03-11T03:36:40;3.00;53.50
68476;DHT22;55464;48.266;14.188;2023-03-11T03:39:06;3.00;53.40
68476;DHT22;55464;48.266;14.188;2023-03-11T03:41:32;2.90;53.90
68476;DHT22;55464;48.266;14.188;2023-03-11T03:43:57;3.00;53.90
68476;DHT22;55464;48.266;14.188;2023-03-11T03:46:24;2.90;54.20
68476;DHT22;55464;48.266;14.188;2023-03-11T03:48:49;3.00;54.50
68476;DHT22;55464;48.266;14.188;2023-03-11T03:51:15;2.80;54.70
68476;DHT22;55464;48.266;14.188;2023-03-11T03:53:42;2.90;54.60
68476;DHT22;55464;48.266;14.188;2023-03-11T03:56:10;2.90;54.60
68476;DHT22;55464;48.266;14.188;2023-03-11T03:58:36;2.90;54.70
68476;DHT22;55464;48.266;14.188;2023-03-11T04:01:02;2.90;55.00
68476;DHT22;55464;48.266;14.188;2023-03-11T04:03:29;2.90;55.20
68476;DHT22;55464;48.266;14.188;2023-03-11T04:06:13;2.80;55.60
68476;DHT22;55464;48.266;14.188;2023-03-11T04:08:39;2.80;55.20
68476;DHT22;55464;48.266;14.188;2023-03-11T04:11:05;2.90;55.60
68476;DHT22;55464;48.266;14.188;2023-03-11T04:13:31;2.90;55.70
68476;DHT22;55464;48.266;14.188;2023-03-11T04:15:57;2.90;56.30
68476;DHT22;55464;48.266;14.188;2023-03-11T04:18:22;2.80;56.60
68476;DHT22;55464;48.266;14.188;2023-03-11T04:20:48;2.80;56.90
68476;DHT22;55464;48.266;14.188;2023-03-11T04:23:14;2.80;56.80
68476;DHT22;55464;48.266;14.188;2023-03-11T04:25:40;2.80;56.90
68476;DHT22;55464;48.266;14.188;2023-03-11T04:28:06;2.90;57.10
68476;DHT22;55464;48.266;14.188;2023-03-11T04:30:31;2.90;57.40
68476;DHT22;55464;48.266;14.188;2023-03-11T04:32:57;2.80;57.80
68476;DHT22;55464;48.266;14.188;2023-03-11T04:35:22;2.80;57.20
68476;DHT22;55464;48.266;14.188;2023-03-11T04:37:48;2.80;58.00
68476;DHT22;55464;48.266;14.188;2023-03-11T04:40:14;2.70;58.90
68476;DHT22;55464;48.266;14.188;2023-03-11T04:42:39;2.70;58.10
68476;DHT22;55464;48.266;14.188;2023-03-11T04:45:06;2.80;58.60
68476;DHT22;55464;48.266;14.188;2023-03-11T04:47:32;2.70;57.90
68476;DHT22;55464;48.266;14.188;2023-03-11T04:49:58;2.80;58.40
68476;DHT22;55464;48.266;14.188;2023-03-11T04:52:24;2.70;59.20
68476;DHT22;55464;48.266;14.188;2023-03-11T04:54:49;2.70;59.50
68476;DHT22;55464;48.266;14.188;2023-03-11T04:57:15;2.70;59.80
68476;DHT22;55464;48.266;14.188;2023-03-11T04:59:41;2.60;59.80
68476;DHT22;55464;48.266;14.188;2023-03-11T05:02:06;2.70;60.20
68476;DHT22;55464;48.266;14.188;2023-03-11T05:04:32;2.60;60.50
68476;DHT22;55464;48.266;14.188;2023-03-11T05:06:58;2.60;61.40
68476;DHT22;55464;48.266;14.188;2023-03-11T05:09:23;2.60;61.90
68476;DHT22;55464;48.266;14.188;2023-03-11T05:11:49;2.60;62.50
68476;DHT22;55464;48.266;14.188;2023-03-11T05:14:14;2.60;62.70
68476;DHT22;55464;48.266;14.188;2023-03-11T05:16:40;2.60;63.20
68476;DHT22;55464;48.266;14.188;2023-03-11T05:19:06;2.70;63.60
68476;DHT22;55464;48.266;14.188;2023-03-11T05:21:52;2.60;64.20
68476;DHT22;55464;48.266;14.188;2023-03-11T05:24:17;2.60;64.30
68476;DHT22;55464;48.266;14.188;2023-03-11T05:26:43;2.60;64.10
68476;DHT22;55464;48.266;14.188;2023-03-11T05:29:09;2.60;64.30
68476;DHT22;55464;48.266;14.188;2023-03-11T05:31:34;2.60;64.80
68476;DHT22;55464;48.266;14.188;2023-03-11T05:34:00;2.60;64.70
68476;DHT22;55464;48.266;14.188;2023-03-11T05:36:26;2.70;65.00
68476;DHT22;55464;48.266;14.188;2023-03-11T05:38:51;2.70;64.50
68476;DHT22;55464;48.266;14.188;2023-03-11T05:41:18;2.70;64.70
68476;DHT22;55464;48.266;14.188;2023-03-11T05:43:44;2.80;64.50
68476;DHT22;55464;48.266;14.188;2023-03-11T05:46:10;2.80;64.20
68476;DHT22;55464;48.266;14.188;2023-03-11T05:48:36;2.90;64.20
68476;DHT22;55464;48.266;14.188;2023-03-11T05:51:06;2.80;64.50
68476;DHT22;55464;48.266;14.188;2023-03-11T05:53:32;2.70;64.20
68476;DHT22;55464;48.266;14.188;2023-03-11T05:55:58;2.70;64.80
68476;DHT22;55464;48.266;14.188;2023-03-11T05:58:25;2.70;64.80
68476;DHT22;55464;48.266;14.188;2023-03-11T06:00:51;2.80;65.30
68476;DHT22;55464;48.266;14.188;2023-03-11T06:03:17;2.80;65.30
68476;DHT22;55464;48.266;14.188;2023-03-11T06:05:47;2.80;66.40
68476;DHT22;55464;48.266;14.188;2023-03-11T06:08:13;2.90;65.50
68476;DHT22;55464;48.266;14.188;2023-03-11T06:10:39;2.80;65.80
68476;DHT22;55464;48.266;14.188;2023-03-11T06:13:05;2.90;64.90
68476;DHT22;55464;48.266;14.188;2023-03-11T06:15:35;2.80;64.60
68476;DHT22;55464;48.266;14.188;2023-03-11T06:18:02;2.70;64.40
68476;DHT22;55464;48.266;14.188;2023-03-11T06:20:27;2.70;64.10
68476;DHT22;55464;48.266;14.188;2023-03-11T06:22:53;2.70;63.90
68476;DHT22;55464;48.266;14.188;2023-03-11T06:25:19;2.60;63.80
68476;DHT22;55464;48.266;14.188;2023-03-11T06:27:49;2.60;64.40
68476;DHT22;55464;48.266;14.188;2023-03-11T06:30:16;2.60;64.10
68476;DHT22;55464;48.266;14.188;2023-03-11T06:32:44;2.60;64.40
68476;DHT22;55464;48.266;14.188;2023-03-11T06:35:10;2.80;64.10
68476;DHT22;55464;48.266;14.188;2023-03-11T06:37:36;2.70;63.80
68476;DHT22;55464;48.266;14.188;2023-03-11T06:40:03;2.70;64.60
68476;DHT22;55464;48.266;14.188;2023-03-11T06:42:29;2.60;64.60
68476;DHT22;55464;48.266;14.188;2023-03-11T06:44:55;2.70;64.80
68476;DHT22;55464;48.266;14.188;2023-03-11T06:47:21;2.70;64.90
68476;DHT22;55464;48.266;14.188;2023-03-11T06:49:46;2.80;65.20
68476;DHT22;55464;48.266;14.188;2023-03-11T06:52:14;2.80;64.10
68476;DHT22;55464;48.266;14.188;2023-03-11T06:54:40;2.90;63.70
68476;DHT22;55464;48.266;14.188;2023-03-11T06:57:07;2.80;63.20
68476;DHT22;55464;48.266;14.188;2023-03-11T06:59:33;2.70;63.00
68476;DHT22;55464;48.266;14.188;2023-03-11T07:01:59;2.80;63.10
68476;DHT22;55464;48.266;14.188;2023-03-11T07:04:24;2.80;62.00
68476;DHT22;55464;48.266;14.188;2023-03-11T07:06:50;2.80;62.50
68476;DHT22;55464;48.266;14.188;2023-03-11T07:09:16;2.90;61.80
68476;DHT22;55464;48.266;14.188;2023-03-11T07:11:42;2.90;61.50
68476;DHT22;55464;48.266;14.188;2023-03-11T07:14:07;2.90;62.30
68476;DHT22;55464;48.266;14.188;2023-03-11T07:16:33;3.00;62.70
68476;DHT22;55464;48.266;14.188;2023-03-11T07:18:59;3.10;62.30
68476;DHT22;55464;48.266;14.188;2023-03-11T07:21:28;3.10;61.90
68476;DHT22;55464;48.266;14.188;2023-03-11T07:23:56;3.10;62.00
68476;DHT22;55464;48.266;14.188;2023-03-11T07:26:23;3.10;62.80
68476;DHT22;55464;48.266;14.188;2023-03-11T07:28:50;3.20;63.00
68476;DHT22;55464;48.266;14.188;2023-03-11T07:31:19;3.20;62.10
68476;DHT22;55464;48.266;14.188;2023-03-11T07:33:45;3.20;62.30
68476;DHT22;55464;48.266;14.188;2023-03-11T07:36:14;3.20;61.70
68476;DHT22;55464;48.266;14.188;2023-03-11T07:38:41;3.20;62.20
68476;DHT22;55464;48.266;14.188;2023-03-11T07:41:07;3.20;61.20
68476;DHT22;55464;48.266;14.188;2023-03-11T07:43:35;3.10;61.20
68476;DHT22;55464;48.266;14.188;2023-03-11T07:46:05;3.10;60.40
68476;DHT22;55464;48.266;14.188;2023-03-11T07:48:32;3.00;60.40
68476;DHT22;55464;48.266;14.188;2023-03-11T07:51:06;3.10;60.90
68476;DHT22;55464;48.266;14.188;2023-03-11T07:53:33;3.10;60.50
68476;DHT22;55464;48.266;14.188;2023-03-11T07:55:59;3.10;61.10
68476;DHT22;55464;48.266;14.188;2023-03-11T07:58:25;3.00;60.80
68476;DHT22;55464;48.266;14.188;2023-03-11T08:00:51;3.00;60.90
68476;DHT22;55464;48.266;14.188;2023-03-11T08:03:19;3.10;60.00
68476;DHT22;55464;48.266;14.188;2023-03-11T08:05:44;3.00;60.30
68476;DHT22;55464;48.266;14.188;2023-03-11T08:08:10;3.10;60.10
68476;DHT22;55464;48.266;14.188;2023-03-11T08:10:36;3.00;60.20
68476;DHT22;55464;48.266;14.188;2023-03-11T08:13:02;3.10;59.50
68476;DHT22;55464;48.266;14.188;2023-03-11T08:15:28;3.10;59.50
68476;DHT22;55464;48.266;14.188;2023-03-11T08:17:53;3.20;59.40
68476;DHT22;55464;48.266;14.188;2023-03-11T08:20:19;3.30;59.40
68476;DHT22;55464;48.266;14.188;2023-03-11T08:22:45;3.30;58.70
68476;DHT22;55464;48.266;14.188;2023-03-11T08:25:10;3.30;58.50
68476;DHT22;55464;48.266;14.188;2023-03-11T08:27:36;3.40;59.10
68476;DHT22;55464;48.266;14.188;2023-03-11T08:30:03;3.50;59.50
68476;DHT22;55464;48.266;14.188;2023-03-11T08:32:29;3.60;58.40
68476;DHT22;55464;48.266;14.188;2023-03-11T08:34:56;3.70;58.20
68476;DHT22;55464;48.266;14.188;2023-03-11T08:37:22;3.80;58.40
68476;DHT22;55464;48.266;14.188;2023-03-11T08:39:48;3.90;58.70
68476;DHT22;55464;48.266;14.188;2023-03-11T08:42:15;4.00;59.30
68476;DHT22;55464;48.266;14.188;2023-03-11T08:44:41;3.90;57.40
68476;DHT22;55464;48.266;14.188;2023-03-11T08:47:07;3.80;57.90
68476;DHT22;55464;48.266;14.188;2023-03-11T08:49:33;3.90;58.30
68476;DHT22;55464;48.266;14.188;2023-03-11T08:52:00;3.90;57.90
68476;DHT22;55464;48.266;14.188;2023-03-11T08:54:26;4.00;58.80
68476;DHT22;55464;48.266;14.188;2023-03-11T08:56:52;3.90;56.80
68476;DHT22;55464;48.266;14.188;2023-03-11T08:59:18;3.80;57.70
68476;DHT22;55464;48.266;14.188;2023-03-11T09:01:43;3.90;57.70
68476;DHT22;55464;48.266;14.188;2023-03-11T09:04:09;3.90;57.90
68476;DHT22;55464;48.266;14.188;2023-03-11T09:06:36;3.90;58.50
68476;DHT22;55464;48.266;14.188;2023-03-11T09:09:02;3.90;58.30
68476;DHT22;55464;48.266;14.188;2023-03-11T09:11:28;3.80;59.00
68476;DHT22;55464;48.266;14.188;2023-03-11T09:13:54;3.70;58.30
68476;DHT22;55464;48.266;14.188;2023-03-11T09:16:21;3.80;58.70
68476;DHT22;55464;48.266;14.188;2023-03-11T09:18:47;3.80;58.70
68476;DHT22;55464;48.266;14.188;2023-03-11T09:21:13;3.70;58.30
68476;DHT22;55464;48.266;14.188;2023-03-11T09:23:39;3.80;58.40
68476;DHT22;55464;48.266;14.188;2023-03-11T09:26:05;3.70;58.60
68476;DHT22;55464;48.266;14.188;2023-03-11T09:28:31;3.80;58.20
68476;DHT22;55464;48.266;14.188;2023-03-11T09:30:57;3.90;59.00
68476;DHT22;55464;48.266;14.188;2023-03-11T09:33:23;3.80;58.80
68476;DHT22;55464;48.266;14.188;2023-03-11T09:35:49;3.80;58.10
68476;DHT22;55464;48.266;14.188;2023-03-11T09:38:14;3.90;58.20
68476;DHT22;55464;48.266;14.188;2023-03-11T09:41:00;3.90;58.50
68476;DHT22;55464;48.266;14.188;2023-03-11T09:48:58;4.10;58.80
68476;DHT22;55464;48.266;14.188;2023-03-11T09:51:29;4.10;57.60
68476;DHT22;55464;48.266;14.188;2023-03-11T09:54:03;4.10;57.60
68476;DHT22;55464;48.266;14.188;2023-03-11T09:56:30;4.10;58.40
68476;DHT22;55464;48.266;14.188;2023-03-11T09:59:13;4.10;58.40
68476;DHT22;55464;48.266;14.188;2023-03-11T10:01:43;4.10;58.80
68476;DHT22;55464;48.266;14.188;2023-03-11T10:04:17;4.00;58.50
68476;DHT22;55464;48.266;14.188;2023-03-11T10:06:46;3.90;57.70
68476;DHT22;55464;48.266;14.188;2023-03-11T10:17:54;4.20;58.00
68476;DHT22;55464;48.266;14.188;2023-03-11T10:26:24;4.30;56.70
68476;DHT22;55464;48.266;14.188;2023-03-11T10:29:02;4.50;55.90
68476;DHT22;55464;48.266;14.188;2023-03-11T10:36:38;4.50;55.40
68476;DHT22;55464;48.266;14.188;2023-03-11T10:39:05;4.40;54.50
68476;DHT22;55464;48.266;14.188;2023-03-11T10:41:59;4.30;55.20
68476;DHT22;55464;48.266;14.188;2023-03-11T10:44:31;4.30;55.70
68476;DHT22;55464;48.266;14.188;2023-03-11T10:46:58;4.20;56.20
68476;DHT22;55464;48.266;14.188;2023-03-11T10:49:24;4.10;53.60
68476;DHT22;55464;48.266;14.188;2023-03-11T10:51:52;4.10;54.20
68476;DHT22;55464;48.266;14.188;2023-03-11T10:56:57;4.10;54.80
68476;DHT22;55464;48.266;14.188;2023-03-11T10:59:27;4.00;56.00
68476;DHT22;55464;48.266;14.188;2023-03-11T11:04:29;4.20;55.80
68476;DHT22;55464;48.266;14.188;2023-03-11T11:06:55;4.10;54.90
68476;DHT22;55464;48.266;14.188;2023-03-11T11:09:22;4.10;54.60
68476;DHT22;55464;48.266;14.188;2023-03-11T11:12:11;4.10;55.20
68476;DHT22;55464;48.266;14.188;2023-03-11T11:17:31;4.30;55.20
68476;DHT22;55464;48.266;14.188;2023-03-11T11:20:00;4.30;54.50
68476;DHT22;55464;48.266;14.188;2023-03-11T11:22:37;4.20;53.00
68476;DHT22;55464;48.266;14.188;2023-03-11T11:25:30;4.20;54.60
68476;DHT22;55464;48.266;14.188;2023-03-11T11:28:17;4.20;55.60
68476;DHT22;55464;48.266;14.188;2023-03-11T11:31:02;4.10;54.30
68476;DHT22;55464;48.266;14.188;2023-03-11T11:33:38;4.10;54.30
68476;DHT22;55464;48.266;14.188;2023-03-11T11:36:05;4.20;54.30
68476;DHT22;55464;48.266;14.188;2023-03-11T11:38:36;4.20;54.00
68476;DHT22;55464;48.266;14.188;2023-03-11T11:41:03;4.20;54.10
68476;DHT22;55464;48.266;14.188;2023-03-11T11:43:52;4.20;54.70
68476;DHT22;55464;48.266;14.188;2023-03-11T11:46:40;4.30;54.60
68476;DHT22;55464;48.266;14.188;2023-03-11T11:49:23;4.20;54.00
68476;DHT22;55464;48.266;14.188;2023-03-11T11:54:35;4.30;54.00
68476;DHT22;55464;48.266;14.188;2023-03-11T11:57:11;4.30;54.10
68476;DHT22;55464;48.266;14.188;2023-03-11T11:59:36;4.30;53.60
68476;DHT22;55464;48.266;14.188;2023-03-11T12:15:40;4.30;54.30
68476;DHT22;55464;48.266;14.188;2023-03-11T12:18:18;4.20;54.30
68476;DHT22;55464;48.266;14.188;2023-03-11T12:20:53;4.30;56.70
68476;DHT22;55464;48.266;14.188;2023-03-11T12:31:16;4.60;56.20
68476;DHT22;55464;48.266;14.188;2023-03-11T12:33:49;4.60;56.80
68476;DHT22;55464;48.266;14.188;2023-03-11T12:36:35;4.60;55.50
68476;DHT22;55464;48.266;14.188;2023-03-11T12:39:06;4.60;55.20
68476;DHT22;55464;48.266;14.188;2023-03-11T12:41:35;4.60;55.60
68476;DHT22;55464;48.266;14.188;2023-03-11T12:44:26;4.60;55.30
68476;DHT22;55464;48.266;14.188;2023-03-11T12:49:30;4.60;54.40
68476;DHT22;55464;48.266;14.188;2023-03-11T12:54:48;4.50;55.10
68476;DHT22;55464;48.266;14.188;2023-03-11T13:05:49;4.60;54.00
68476;DHT22;55464;48.266;14.188;2023-03-11T13:08:20;4.50;52.70
68476;DHT22;55464;48.266;14.188;2023-03-11T13:10:49;4.50;52.60
68476;DHT22;55464;48.266;14.188;2023-03-11T13:15:54;4.60;52.70
68476;DHT22;55464;48.266;14.188;2023-03-11T13:18:27;4.60;53.10
68476;DHT22;55464;48.266;14.188;2023-03-11T13:20:57;4.60;52.60
68476;DHT22;55464;48.266;14.188;2023-03-11T13:23:37;4.60;52.20
68476;DHT22;55464;48.266;14.188;2023-03-11T13:41:43;4.60;52.40
68476;DHT22;55464;48.266;14.188;2023-03-11T13:44:35;4.40;52.70
68476;DHT22;55464;48.266;14.188;2023-03-11T13:47:06;4.30;53.30
68476;DHT22;55464;48.266;14.188;2023-03-11T13:49:38;4.30;52.90
68476;DHT22;55464;48.266;14.188;2023-03-11T13:52:11;4.30;53.40
68476;DHT22;55464;48.266;14.188;2023-03-11T13:54:48;4.30;53.70
68476;DHT22;55464;48.266;14.188;2023-03-11T13:57:29;4.40;53.50
68476;DHT22;55464;48.266;14.188;2023-03-11T13:59:56;4.30;52.70
68476;DHT22;55464;48.266;14.188;2023-03-11T14:02:25;4.30;52.50
68476;DHT22;55464;48.266;14.188;2023-03-11T14:05:15;4.30;52.80
68476;DHT22;55464;48.266;14.188;2023-03-11T14:07:41;4.20;53.90
68476;DHT22;55464;48.266;14.188;2023-03-11T14:10:23;4.20;53.00
68476;DHT22;55464;48.266;14.188;2023-03-11T14:12:50;4.10;53.30
68476;DHT22;55464;48.266;14.188;2023-03-11T14:15:20;4.20;54.20
68476;DHT22;55464;48.266;14.188;2023-03-11T14:17:47;4.20;53.90
68476;DHT22;55464;48.266;14.188;2023-03-11T14:20:20;4.20;54.60
68476;DHT22;55464;48.266;14.188;2023-03-11T14:22:54;4.20;54.30
68476;DHT22;55464;48.266;14.188;2023-03-11T14:25:25;4.30;53.70
68476;DHT22;55464;48.266;14.188;2023-03-11T14:28:03;4.30;54.60
68476;DHT22;55464;48.266;14.188;2023-03-11T14:30:32;4.30;53.30
68476;DHT22;55464;48.266;14.188;2023-03-11T14:35:23;4.30;53.70
68476;DHT22;55464;48.266;14.188;2023-03-11T14:37:49;4.40;53.70
68476;DHT22;55464;48.266;14.188;2023-03-11T14:40:24;4.30;54.10
68476;DHT22;55464;48.266;14.188;2023-03-11T14:42:51;4.40;54.10
68476;DHT22;55464;48.266;14.188;2023-03-11T14:45:21;4.40;54.20
68476;DHT22;55464;48.266;14.188;2023-03-11T14:48:29;4.20;53.80
68476;DHT22;55464;48.266;14.188;2023-03-11T14:50:56;4.20;55.00
68476;DHT22;55464;48.266;14.188;2023-03-11T14:53:36;4.20;54.90
68476;DHT22;55464;48.266;14.188;2023-03-11T14:56:15;4.20;54.60
68476;DHT22;55464;48.266;14.188;2023-03-11T15:01:24;4.20;53.40
68476;DHT22;55464;48.266;14.188;2023-03-11T15:03:58;4.20;53.80
68476;DHT22;55464;48.266;14.188;2023-03-11T15:06:27;4.20;54.40
68476;DHT22;55464;48.266;14.188;2023-03-11T15:09:07;4.20;54.50
68476;DHT22;55464;48.266;14.188;2023-03-11T15:12:03;4.20;53.60
68476;DHT22;55464;48.266;14.188;2023-03-11T15:14:35;4.20;53.40
68476;DHT22;55464;48.266;14.188;2023-03-11T15:17:22;4.20;53.50
68476;DHT22;55464;48.266;14.188;2023-03-11T15:19:53;4.20;54.10
68476;DHT22;55464;48.266;14.188;2023-03-11T15:22:38;4.30;54.50
68476;DHT22;55464;48.266;14.188;2023-03-11T15:25:18;4.40;53.50
68476;DHT22;55464;48.266;14.188;2023-03-11T15:27:44;4.40;51.50
68476;DHT22;55464;48.266;14.188;2023-03-11T15:30:29;4.30;52.20
68476;DHT22;55464;48.266;14.188;2023-03-11T15:32:57;4.30;52.80
68476;DHT22;55464;48.266;14.188;2023-03-11T15:35:26;4.20;53.00
68476;DHT22;55464;48.266;14.188;2023-03-11T15:38:30;4.30;52.70
68476;DHT22;55464;48.266;14.188;2023-03-11T15:41:00;4.30;53.10
68476;DHT22;55464;48.266;14.188;2023-03-11T15:43:34;4.30;53.30
68476;DHT22;55464;48.266;14.188;2023-03-11T15:46:09;4.30;53.70
68476;DHT22;55464;48.266;14.188;2023-03-11T15:48:35;4.30;53.30
68476;DHT22;55464;48.266;14.188;2023-03-11T15:51:00;4.30;52.60
68476;DHT22;55464;48.266;14.188;2023-03-11T15:53:27;4.40;53.00
68476;DHT22;55464;48.266;14.188;2023-03-11T15:55:57;4.50;52.30
68476;DHT22;55464;48.266;14.188;2023-03-11T15:58:23;4.50;51.10
68476;DHT22;55464;48.266;14.188;2023-03-11T16:00:54;4.40;51.20
68476;DHT22;55464;48.266;14.188;2023-03-11T16:03:21;4.50;51.10
68476;DHT22;55464;48.266;14.188;2023-03-11T16:05:47;4.40;50.70
68476;DHT22;55464;48.266;14.188;2023-03-11T16:08:13;4.30;50.60
68476;DHT22;55464;48.266;14.188;2023-03-11T16:10:40;4.20;49.60
68476;DHT22;55464;48.266;14.188;2023-03-11T16:13:05;4.20;50.60
68476;DHT22;55464;48.266;14.188;2023-03-11T16:15:34;4.20;50.60
68476;DHT22;55464;48.266;14.188;2023-03-11T16:18:03;4.10;50.70
68476;DHT22;55464;48.266;14.188;2023-03-11T16:20:45;4.10;51.20
68476;DHT22;55464;48.266;14.188;2023-03-11T16:23:26;4.10;51.20
68476;DHT22;55464;48.266;14.188;2023-03-11T16:25:56;4.10;51.00
68476;DHT22;55464;48.266;14.188;2023-03-11T16:28:22;4.00;50.70
68476;DHT22;55464;48.266;14.188;2023-03-11T16:30:49;4.00;51.00
68476;DHT22;55464;48.266;14.188;2023-03-11T16:33:15;4.00;51.10
68476;DHT22;55464;48.266;14.188;2023-03-11T16:35:40;4.00;51.50
68476;DHT22;55464;48.266;14.188;2023-03-11T16:38:07;4.00;51.70
68476;DHT22;55464;48.266;14.188;2023-03-11T16:40:33;3.90;52.30
68476;DHT22;55464;48.266;14.188;2023-03-11T16:43:04;4.00;52.70
68476;DHT22;55464;48.266;14.188;2023-03-11T16:45:31;4.00;53.20
68476;DHT22;55464;48.266;14.188;2023-03-11T16:47:56;3.90;53.40
68476;DHT22;55464;48.266;14.188;2023-03-11T16:50:22;3.90;53.60
68476;DHT22;55464;48.266;14.188;2023-03-11T16:52:52;3.90;53.90
68476;DHT22;55464;48.266;14.188;2023-03-11T16:55:18;3.90;54.00
68476;DHT22;55464;48.266;14.188;2023-03-11T16:57:44;3.90;53.90
68476;DHT22;55464;48.266;14.188;2023-03-11T17:00:11;3.90;53.90
68476;DHT22;55464;48.266;14.188;2023-03-11T17:02:37;3.80;53.80
68476;DHT22;55464;48.266;14.188;2023-03-11T17:05:04;3.80;53.70
68476;DHT22;55464;48.266;14.188;2023-03-11T17:07:30;3.80;54.00
68476;DHT22;55464;48.266;14.188;2023-03-11T17:09:59;3.80;54.30
68476;DHT22;55464;48.266;14.188;2023-03-11T17:12:26;3.80;54.30
68476;DHT22;55464;48.266;14.188;2023-03-11T17:14:52;3.80;54.30
68476;DHT22;55464;48.266;14.188;2023-03-11T17:17:19;3.70;54.20
68476;DHT22;55464;48.266;14.188;2023-03-11T17:19:45;3.70;54.30
68476;DHT22;55464;48.266;14.188;2023-03-11T17:22:11;3.70;54.30